createdAt,value
2023-04-29T00:00:39.231Z,9.76
2023-04-29T00:01:41.906Z,10.18
2023-04-29T00:02:44.369Z,9.75
2023-04-29T00:03:47.061Z,9.43
2023-04-29T00:04:50.038Z,9.36
2023-04-29T00:05:52.831Z,8.77
2023-04-29T00:06:55.314Z,9.28
2023-04-29T00:07:57.753Z,9.99
2023-04-29T00:09:00.192Z,10.32
2023-04-29T00:10:02.729Z,9.84
2023-04-29T00:11:04.923Z,9.18
2023-04-29T00:12:07.436Z,9.24
2023-04-29T00:13:09.880Z,8.96
2023-04-29T00:14:12.352Z,8.06
2023-04-29T00:15:15.374Z,7.99
2023-04-29T00:16:18.078Z,8.00
2023-04-29T00:17:20.641Z,8.02
2023-04-29T00:18:23.236Z,8.27
2023-04-29T00:19:25.952Z,7.15
2023-04-29T00:20:28.629Z,7.88
2023-04-29T00:21:31.185Z,8.37
2023-04-29T00:22:33.516Z,7.67
2023-04-29T00:23:36.127Z,7.58
2023-04-29T00:24:38.615Z,7.69
2023-04-29T00:25:41.528Z,7.82
2023-04-29T00:26:43.975Z,7.75
2023-04-29T00:27:46.530Z,7.55
2023-04-29T00:28:48.928Z,7.72
2023-04-29T00:29:51.566Z,7.52
2023-04-29T00:30:54.464Z,7.32
2023-04-29T00:32:01.722Z,7.05
2023-04-29T00:33:04.373Z,6.61
2023-04-29T00:34:07.096Z,6.82
2023-04-29T00:35:09.555Z,6.72
2023-04-29T00:36:12.257Z,6.72
2023-04-29T00:37:14.747Z,6.71
2023-04-29T00:38:17.383Z,5.98
2023-04-29T00:39:20.112Z,6.22
2023-04-29T00:40:22.585Z,6.71
2023-04-29T00:41:25.194Z,6.99
2023-04-29T00:42:27.694Z,6.71
2023-04-29T00:43:30.166Z,6.80
2023-04-29T00:44:32.566Z,7.15
2023-04-29T00:45:35.052Z,6.82
2023-04-29T00:46:37.807Z,6.97
2023-04-29T00:47:40.314Z,6.31
2023-04-29T00:48:42.839Z,6.35
2023-04-29T00:49:45.362Z,6.08
2023-04-29T00:50:47.853Z,6.38
2023-04-29T00:51:50.540Z,6.21
2023-04-29T00:52:53.039Z,6.32
2023-04-29T00:53:55.527Z,5.97
2023-04-29T00:54:58.369Z,5.09
2023-04-29T00:56:00.952Z,5.02
2023-04-29T00:57:03.560Z,4.94
2023-04-29T00:58:06.216Z,4.55
2023-04-29T00:59:08.677Z,4.53
2023-04-29T01:00:11.091Z,4.76
2023-04-29T01:01:13.578Z,4.78
2023-04-29T01:02:16.166Z,4.91
2023-04-29T01:03:18.653Z,5.37
2023-04-29T01:04:21.365Z,5.54
2023-04-29T01:05:24.112Z,5.14
2023-04-29T01:06:26.675Z,5.58
2023-04-29T01:07:29.287Z,4.72
2023-04-29T01:08:31.816Z,5.12
2023-04-29T01:09:34.145Z,5.58
2023-04-29T01:10:36.405Z,5.18
2023-04-29T01:11:38.683Z,5.90
2023-04-29T01:12:41.015Z,5.85
2023-04-29T01:13:43.253Z,5.85
2023-04-29T01:14:45.565Z,5.79
2023-04-29T01:15:47.929Z,6.56
2023-04-29T01:16:50.178Z,6.62
2023-04-29T01:17:52.680Z,6.43
2023-04-29T01:18:54.918Z,6.83
2023-04-29T01:19:57.175Z,6.64
2023-04-29T01:20:59.538Z,7.21
2023-04-29T01:22:01.887Z,8.04
2023-04-29T01:23:04.379Z,8.83
2023-04-29T01:24:06.590Z,9.13
2023-04-29T01:25:08.856Z,9.61
2023-04-29T01:26:11.206Z,9.62
2023-04-29T01:27:22.694Z,9.42
2023-04-29T01:28:25.376Z,10.05
2023-04-29T01:29:28.440Z,10.43
2023-04-29T01:30:31.729Z,9.50
2023-04-29T01:31:35.270Z,9.68
2023-04-29T01:32:38.547Z,9.82
2023-04-29T01:33:41.796Z,9.95
2023-04-29T01:34:45.987Z,9.85
2023-04-29T01:35:49.196Z,9.69
2023-04-29T01:36:52.765Z,8.32
2023-04-29T01:37:55.843Z,8.02
2023-04-29T01:38:59.530Z,7.10
2023-04-29T01:40:02.917Z,7.59
2023-04-29T01:41:05.920Z,6.61
2023-04-29T01:42:09.270Z,7.13
2023-04-29T01:43:12.246Z,6.98
2023-04-29T01:44:15.432Z,6.50
2023-04-29T01:45:18.421Z,6.82
2023-04-29T01:46:21.833Z,7.09
2023-04-29T01:47:25.310Z,7.10
2023-04-29T01:48:28.679Z,7.90
2023-04-29T01:49:32.196Z,7.43
2023-04-29T01:50:35.551Z,7.42
2023-04-29T01:51:39.461Z,6.68
2023-04-29T01:52:43.058Z,7.76
2023-04-29T01:53:46.039Z,7.85
2023-04-29T01:54:49.516Z,7.58
2023-04-29T01:55:52.814Z,7.85
2023-04-29T01:56:55.674Z,7.83
2023-04-29T01:57:59.039Z,7.75
2023-04-29T01:59:02.432Z,8.18
2023-04-29T02:00:05.762Z,8.35
2023-04-29T02:01:08.720Z,8.60
2023-04-29T02:02:11.772Z,8.67
2023-04-29T02:03:15.282Z,8.47
2023-04-29T02:04:18.330Z,8.55
2023-04-29T02:05:21.722Z,8.81
2023-04-29T02:06:24.772Z,8.14
2023-04-29T02:07:27.599Z,8.40
2023-04-29T02:08:30.868Z,8.60
2023-04-29T02:09:33.980Z,9.61
2023-04-29T02:10:36.643Z,9.18
2023-04-29T02:11:40.097Z,9.56
2023-04-29T02:12:43.105Z,9.25
2023-04-29T02:13:46.429Z,9.33
2023-04-29T02:14:49.970Z,9.49
2023-04-29T02:15:53.066Z,8.73
2023-04-29T02:16:56.320Z,8.78
2023-04-29T02:17:59.973Z,8.88
2023-04-29T02:19:03.433Z,8.66
2023-04-29T02:20:06.198Z,8.25
2023-04-29T02:21:09.413Z,8.60
2023-04-29T02:22:12.860Z,8.33
2023-04-29T02:23:16.044Z,8.33
2023-04-29T02:24:19.417Z,8.24
2023-04-29T02:25:22.796Z,7.57
2023-04-29T02:26:26.122Z,7.61
2023-04-29T02:27:28.781Z,8.37
2023-04-29T02:28:31.655Z,7.72
2023-04-29T02:29:34.655Z,7.89
2023-04-29T02:30:37.894Z,7.52
2023-04-29T02:31:41.177Z,7.33
2023-04-29T02:32:44.621Z,7.80
2023-04-29T02:33:47.577Z,6.98
2023-04-29T02:34:50.716Z,6.70
2023-04-29T02:35:53.731Z,6.88
2023-04-29T02:36:57.310Z,6.82
2023-04-29T02:38:00.778Z,6.77
2023-04-29T02:39:03.689Z,6.81
2023-04-29T02:40:06.451Z,6.52
2023-04-29T02:41:09.474Z,5.72
2023-04-29T02:42:12.510Z,5.78
2023-04-29T02:43:15.525Z,5.61
2023-04-29T02:44:18.952Z,5.81
2023-04-29T02:45:21.758Z,4.75
2023-04-29T02:46:24.787Z,4.94
2023-04-29T02:47:27.851Z,4.28
2023-04-29T02:48:30.821Z,4.62
2023-04-29T02:49:33.729Z,4.26
2023-04-29T02:50:37.014Z,4.08
2023-04-29T02:51:40.203Z,4.30
2023-04-29T02:52:43.616Z,4.16
2023-04-29T02:53:46.490Z,3.98
2023-04-29T02:54:49.716Z,4.48
2023-04-29T02:55:52.551Z,4.16
2023-04-29T02:56:55.799Z,3.52
2023-04-29T02:57:59.082Z,3.25
2023-04-29T02:59:02.345Z,2.89
2023-04-29T03:00:05.256Z,3.14
2023-04-29T03:01:07.910Z,3.40
2023-04-29T03:02:10.873Z,3.83
2023-04-29T03:03:14.351Z,3.44
2023-04-29T03:04:17.670Z,3.66
2023-04-29T03:05:21.008Z,3.58
2023-04-29T03:06:23.647Z,4.16
2023-04-29T03:07:26.953Z,4.15
2023-04-29T03:08:30.394Z,3.75
2023-04-29T03:09:33.657Z,4.14
2023-04-29T03:10:37.012Z,4.15
2023-04-29T03:11:41.002Z,4.11
2023-04-29T03:12:44.369Z,3.62
2023-04-29T03:13:47.554Z,3.95
2023-04-29T03:14:50.633Z,3.78
2023-04-29T03:15:54.122Z,4.15
2023-04-29T03:16:57.221Z,4.61
2023-04-29T03:18:00.707Z,4.16
2023-04-29T03:19:04.173Z,4.17
2023-04-29T03:20:07.265Z,3.78
2023-04-29T03:21:10.523Z,4.57
2023-04-29T03:22:13.621Z,4.78
2023-04-29T03:23:23.015Z,4.25
2023-04-29T03:24:26.120Z,4.51
2023-04-29T03:25:36.853Z,4.28
2023-04-29T03:26:40.106Z,3.45
2023-04-29T03:27:43.439Z,3.44
2023-04-29T03:28:46.716Z,3.73
2023-04-29T03:29:50.141Z,3.92
2023-04-29T03:30:54.166Z,4.10
2023-04-29T03:31:57.710Z,4.28
2023-04-29T03:33:02.165Z,4.05
2023-04-29T03:34:05.298Z,3.91
2023-04-29T03:35:08.834Z,3.82
2023-04-29T03:36:11.790Z,3.07
2023-04-29T03:37:14.647Z,3.62
2023-04-29T03:38:17.622Z,3.25
2023-04-29T03:39:20.507Z,2.90
2023-04-29T03:40:23.126Z,2.99
2023-04-29T03:41:25.636Z,3.02
2023-04-29T03:42:28.016Z,2.86
2023-04-29T03:43:30.476Z,2.72
2023-04-29T03:44:32.945Z,3.08
2023-04-29T03:45:35.371Z,2.87
2023-04-29T03:46:38.090Z,2.75
2023-04-29T03:47:40.772Z,2.95
2023-04-29T03:48:43.264Z,2.63
2023-04-29T03:49:45.856Z,2.49
2023-04-29T03:50:48.427Z,2.32
2023-04-29T03:51:51.110Z,2.36
2023-04-29T03:52:53.578Z,2.31
2023-04-29T03:53:56.112Z,2.52
2023-04-29T03:54:58.586Z,2.42
2023-04-29T03:56:01.050Z,2.70
2023-04-29T03:57:03.754Z,2.83
2023-04-29T03:58:06.431Z,2.68
2023-04-29T03:59:08.950Z,2.88
2023-04-29T04:00:11.438Z,2.83
2023-04-29T04:01:13.909Z,3.82
2023-04-29T04:02:16.541Z,3.25
2023-04-29T04:03:19.285Z,2.88
2023-04-29T04:04:22.195Z,2.90
2023-04-29T04:05:25.196Z,2.85
2023-04-29T04:06:27.631Z,2.93
2023-04-29T04:07:30.171Z,2.82
2023-04-29T04:08:32.441Z,2.84
2023-04-29T04:09:35.072Z,2.72
2023-04-29T04:10:37.584Z,2.88
2023-04-29T04:11:40.152Z,2.42
2023-04-29T04:12:44.282Z,3.11
2023-04-29T04:13:46.834Z,3.18
2023-04-29T04:14:49.257Z,2.92
2023-04-29T04:15:51.577Z,3.12
2023-04-29T04:16:54.870Z,3.15
2023-04-29T04:17:57.213Z,3.25
2023-04-29T04:18:59.445Z,3.26
2023-04-29T04:20:01.906Z,3.07
2023-04-29T04:21:04.570Z,3.34
2023-04-29T04:22:07.151Z,3.52
2023-04-29T04:23:10.890Z,3.36
2023-04-29T04:24:13.353Z,3.61
2023-04-29T04:25:15.917Z,3.55
2023-04-29T04:26:18.447Z,3.99
2023-04-29T04:27:21.042Z,3.67
2023-04-29T04:28:23.586Z,3.55
2023-04-29T04:29:25.811Z,3.92
2023-04-29T04:30:28.276Z,3.90
2023-04-29T04:31:30.758Z,4.12
2023-04-29T04:32:33.033Z,4.13
2023-04-29T04:33:35.628Z,3.86
2023-04-29T04:34:38.113Z,4.05
2023-04-29T04:35:40.542Z,4.45
2023-04-29T04:36:42.987Z,5.03
2023-04-29T04:37:45.461Z,4.86
2023-04-29T04:38:47.926Z,4.71
2023-04-29T04:39:50.578Z,4.36
2023-04-29T04:40:53.238Z,3.95
2023-04-29T04:41:55.468Z,3.93
2023-04-29T04:42:57.931Z,2.87
2023-04-29T04:44:00.173Z,2.94
2023-04-29T04:45:02.424Z,2.98
2023-04-29T04:46:04.790Z,3.23
2023-04-29T04:47:07.118Z,3.09
2023-04-29T04:48:09.753Z,3.59
2023-04-29T04:49:12.221Z,3.74
2023-04-29T04:50:16.230Z,3.41
2023-04-29T04:51:18.758Z,3.23
2023-04-29T04:52:21.255Z,3.84
2023-04-29T04:53:23.715Z,3.98
2023-04-29T04:54:26.136Z,4.30
2023-04-29T04:55:28.685Z,4.58
2023-04-29T04:56:31.192Z,4.28
2023-04-29T04:57:33.729Z,3.98
2023-04-29T04:58:36.152Z,4.05
2023-04-29T04:59:38.680Z,4.22
2023-04-29T05:00:41.105Z,4.74
2023-04-29T05:01:43.564Z,4.87
2023-04-29T05:02:46.287Z,5.03
2023-04-29T05:03:49.075Z,4.90
2023-04-29T05:04:51.675Z,4.60
2023-04-29T05:05:54.129Z,4.87
2023-04-29T05:06:56.577Z,4.93
2023-04-29T05:07:59.061Z,4.96
2023-04-29T05:09:01.532Z,5.33
2023-04-29T05:10:03.890Z,5.65
2023-04-29T05:11:06.130Z,5.59
2023-04-29T05:12:08.393Z,5.35
2023-04-29T05:13:10.627Z,5.83
2023-04-29T05:14:12.946Z,6.22
2023-04-29T05:15:15.160Z,5.90
2023-04-29T05:16:17.597Z,6.07
2023-04-29T05:17:20.279Z,6.04
2023-04-29T05:18:22.923Z,6.53
2023-04-29T05:19:25.493Z,7.22
2023-04-29T05:20:27.977Z,7.48
2023-04-29T05:21:30.532Z,7.60
2023-04-29T05:22:33.030Z,8.17
2023-04-29T05:23:35.513Z,8.33
2023-04-29T05:24:38.069Z,7.90
2023-04-29T05:25:40.477Z,8.19
2023-04-29T05:26:42.979Z,8.28
2023-04-29T05:27:45.562Z,8.61
2023-04-29T05:28:47.826Z,8.15
2023-04-29T05:29:50.036Z,8.35
2023-04-29T05:30:52.385Z,8.38
2023-04-29T05:31:54.705Z,7.86
2023-04-29T05:32:57.033Z,8.20
2023-04-29T05:33:59.315Z,8.29
2023-04-29T05:35:01.549Z,8.23
2023-04-29T05:36:03.738Z,8.39
2023-04-29T05:37:05.972Z,8.15
2023-04-29T05:38:08.246Z,7.83
2023-04-29T05:39:10.444Z,7.60
2023-04-29T05:40:12.754Z,7.38
2023-04-29T05:41:14.998Z,7.59
2023-04-29T05:42:17.307Z,7.67
2023-04-29T05:43:19.509Z,7.25
2023-04-29T05:44:21.710Z,7.33
2023-04-29T05:45:23.950Z,7.82
2023-04-29T05:46:26.192Z,7.85
2023-04-29T05:47:28.706Z,7.97
2023-04-29T05:48:30.999Z,8.20
2023-04-29T05:49:33.525Z,8.27
2023-04-29T05:50:35.966Z,8.29
2023-04-29T05:51:38.374Z,8.36
2023-04-29T05:52:40.625Z,8.63
2023-04-29T05:53:43.032Z,8.41
2023-04-29T05:54:45.644Z,8.12
2023-04-29T05:55:49.708Z,8.15
2023-04-29T05:56:52.226Z,8.34
2023-04-29T05:57:54.668Z,8.51
2023-04-29T05:58:56.921Z,7.49
2023-04-29T05:59:59.156Z,7.73
2023-04-29T06:01:01.455Z,7.82
2023-04-29T06:02:03.678Z,8.34
2023-04-29T06:03:05.966Z,7.72
2023-04-29T06:04:08.552Z,7.79
2023-04-29T06:05:11.460Z,7.69
2023-04-29T06:06:14.149Z,7.63
2023-04-29T06:07:18.871Z,7.52
2023-04-29T06:08:20.812Z,7.56
2023-04-29T06:09:27.647Z,7.75
2023-04-29T06:10:27.295Z,8.16
2023-04-29T06:11:29.733Z,7.90
2023-04-29T06:12:32.222Z,7.47
2023-04-29T06:13:34.692Z,8.00
2023-04-29T06:14:37.146Z,7.43
2023-04-29T06:15:39.621Z,7.86
2023-04-29T06:16:42.189Z,7.95
2023-04-29T06:17:44.741Z,7.28
2023-04-29T06:18:47.206Z,7.42
2023-04-29T06:19:49.755Z,7.12
2023-04-29T06:20:52.380Z,7.38
2023-04-29T06:21:54.829Z,6.85
2023-04-29T06:23:00.812Z,6.92
2023-04-29T06:24:03.082Z,6.78
2023-04-29T06:25:05.633Z,6.99
2023-04-29T06:26:08.105Z,7.14
2023-04-29T06:27:10.526Z,6.98
2023-04-29T06:28:12.999Z,7.46
2023-04-29T06:29:15.496Z,7.70
2023-04-29T06:30:17.788Z,7.58
2023-04-29T06:31:22.970Z,6.97
2023-04-29T06:32:24.623Z,6.91
2023-04-29T06:33:27.041Z,7.12
2023-04-29T06:34:29.238Z,7.09
2023-04-29T06:35:31.500Z,6.78
2023-04-29T06:36:33.743Z,6.19
2023-04-29T06:37:37.956Z,6.94
2023-04-29T06:38:39.976Z,6.04
2023-04-29T06:39:42.452Z,6.30
2023-04-29T06:40:44.883Z,6.83
2023-04-29T06:41:47.462Z,6.73
2023-04-29T06:42:49.973Z,7.56
2023-04-29T06:43:52.238Z,7.51
2023-04-29T06:44:54.674Z,8.05
2023-04-29T06:45:57.196Z,7.67
2023-04-29T06:47:02.752Z,7.85
2023-04-29T06:48:05.198Z,7.91
2023-04-29T06:49:07.689Z,8.16
2023-04-29T06:50:10.081Z,8.53
2023-04-29T06:51:12.775Z,8.35
2023-04-29T06:52:15.229Z,8.26
2023-04-29T06:53:17.412Z,8.34
2023-04-29T06:54:19.906Z,8.63
2023-04-29T06:55:22.467Z,8.48
2023-04-29T06:56:24.878Z,8.75
2023-04-29T06:57:27.341Z,8.06
2023-04-29T06:58:29.860Z,8.78
2023-04-29T06:59:32.341Z,8.52
2023-04-29T07:00:34.909Z,8.53
2023-04-29T07:01:37.458Z,8.58
2023-04-29T07:02:41.774Z,8.49
2023-04-29T07:03:44.431Z,8.86
2023-04-29T07:04:47.156Z,8.80
2023-04-29T07:05:49.799Z,9.19
2023-04-29T07:06:52.271Z,9.13
2023-04-29T07:07:54.719Z,9.09
2023-04-29T07:08:57.282Z,8.79
2023-04-29T07:09:59.821Z,8.66
2023-04-29T07:11:02.349Z,9.16
2023-04-29T07:12:04.752Z,9.02
2023-04-29T07:13:07.264Z,9.20
2023-04-29T07:14:09.767Z,8.79
2023-04-29T07:15:12.526Z,8.90
2023-04-29T07:16:15.052Z,8.96
2023-04-29T07:17:17.697Z,9.04
2023-04-29T07:18:20.246Z,8.63
2023-04-29T07:19:22.757Z,9.00
2023-04-29T07:20:25.221Z,8.62
2023-04-29T07:21:27.714Z,7.02
2023-04-29T07:22:30.145Z,7.06
2023-04-29T07:23:32.679Z,7.75
2023-04-29T07:24:35.229Z,8.38
2023-04-29T07:25:37.725Z,8.28
2023-04-29T07:26:40.161Z,8.54
2023-04-29T07:27:42.622Z,8.05
2023-04-29T07:28:44.928Z,7.35
2023-04-29T07:29:47.835Z,7.25
2023-04-29T07:30:50.181Z,7.06
2023-04-29T07:31:52.431Z,7.57
2023-04-29T07:32:54.785Z,7.37
2023-04-29T07:33:57.151Z,7.00
2023-04-29T07:34:59.516Z,6.85
2023-04-29T07:36:01.951Z,6.32
2023-04-29T07:37:04.557Z,6.17
2023-04-29T07:38:07.200Z,6.37
2023-04-29T07:39:09.761Z,6.78
2023-04-29T07:40:12.243Z,6.92
2023-04-29T07:41:14.882Z,6.66
2023-04-29T07:42:17.386Z,6.95
2023-04-29T07:43:20.038Z,7.32
2023-04-29T07:44:22.620Z,7.62
2023-04-29T07:45:25.025Z,6.87
2023-04-29T07:46:27.577Z,7.29
2023-04-29T07:47:30.085Z,7.67
2023-04-29T07:48:32.362Z,7.51
2023-04-29T07:49:34.723Z,7.55
2023-04-29T07:50:37.009Z,7.88
2023-04-29T07:51:39.216Z,7.79
2023-04-29T07:52:41.419Z,7.90
2023-04-29T07:53:44.735Z,8.64
2023-04-29T07:54:47.279Z,8.72
2023-04-29T07:55:49.593Z,8.78
2023-04-29T07:56:51.802Z,8.51
2023-04-29T07:57:54.350Z,8.43
2023-04-29T07:58:56.858Z,9.11
2023-04-29T07:59:59.320Z,9.13
2023-04-29T08:01:04.452Z,9.61
2023-04-29T08:02:07.016Z,9.47
2023-04-29T08:03:09.533Z,9.45
2023-04-29T08:04:12.257Z,9.70
2023-04-29T08:05:15.222Z,9.48
2023-04-29T08:06:18.151Z,9.70
2023-04-29T08:07:20.890Z,9.82
2023-04-29T08:08:23.327Z,9.18
2023-04-29T08:09:25.906Z,10.55
2023-04-29T08:10:28.371Z,11.13
2023-04-29T08:11:30.977Z,10.68
2023-04-29T08:12:33.421Z,10.17
2023-04-29T08:13:35.950Z,10.30
2023-04-29T08:14:38.369Z,10.56
2023-04-29T08:15:41.297Z,10.61
2023-04-29T08:16:43.999Z,10.38
2023-04-29T08:17:46.570Z,10.38
2023-04-29T08:18:48.891Z,10.53
2023-04-29T08:19:51.136Z,10.12
2023-04-29T08:20:53.337Z,10.42
2023-04-29T08:21:55.597Z,10.30
2023-04-29T08:22:58.164Z,10.52
2023-04-29T08:24:00.414Z,10.93
2023-04-29T08:25:02.935Z,10.86
2023-04-29T08:26:05.473Z,10.22
2023-04-29T08:27:07.967Z,9.57
2023-04-29T08:28:10.386Z,9.49
2023-04-29T08:29:12.834Z,9.60
2023-04-29T08:30:15.321Z,8.55
2023-04-29T08:31:17.822Z,9.61
2023-04-29T08:32:20.399Z,9.87
2023-04-29T08:33:22.879Z,9.75
2023-04-29T08:34:25.343Z,9.64
2023-04-29T08:35:27.809Z,9.76
2023-04-29T08:36:30.351Z,8.86
2023-04-29T08:37:33.008Z,9.62
2023-04-29T08:38:35.343Z,8.75
2023-04-29T08:39:37.615Z,8.33
2023-04-29T08:40:39.968Z,7.94
2023-04-29T08:41:42.210Z,8.82
2023-04-29T08:42:44.990Z,8.93
2023-04-29T08:43:48.208Z,9.06
2023-04-29T08:44:50.791Z,8.19
2023-04-29T08:45:55.874Z,8.64
2023-04-29T08:46:58.459Z,7.90
2023-04-29T08:48:01.403Z,7.70
2023-04-29T08:49:06.595Z,7.98
2023-04-29T08:50:09.155Z,7.55
2023-04-29T08:51:11.676Z,7.87
2023-04-29T08:52:14.374Z,8.31
2023-04-29T08:53:16.598Z,7.45
2023-04-29T08:54:19.245Z,7.12
2023-04-29T08:55:21.702Z,7.48
2023-04-29T08:56:24.963Z,6.47
2023-04-29T08:57:28.297Z,6.79
2023-04-29T08:58:30.945Z,6.42
2023-04-29T08:59:34.533Z,6.45
2023-04-29T09:00:36.987Z,6.44
2023-04-29T09:01:39.267Z,6.44
2023-04-29T09:02:41.670Z,6.53
2023-04-29T09:03:44.143Z,5.99
2023-04-29T09:04:46.611Z,5.96
2023-04-29T09:05:48.854Z,5.77
2023-04-29T09:06:51.116Z,5.65
2023-04-29T09:07:53.350Z,5.57
2023-04-29T09:08:55.688Z,5.25
2023-04-29T09:09:57.893Z,5.24
2023-04-29T09:11:01.651Z,5.86
2023-04-29T09:12:03.996Z,5.79
2023-04-29T09:13:06.345Z,5.14
2023-04-29T09:14:08.916Z,5.07
2023-04-29T09:15:11.434Z,5.16
2023-04-29T09:16:13.896Z,5.20
2023-04-29T09:17:16.300Z,5.17
2023-04-29T09:18:19.663Z,4.83
2023-04-29T09:19:22.222Z,5.39
2023-04-29T09:20:24.580Z,5.18
2023-04-29T09:21:26.825Z,4.89
2023-04-29T09:22:29.237Z,4.86
2023-04-29T09:23:31.479Z,5.84
2023-04-29T09:24:33.961Z,5.15
2023-04-29T09:25:36.423Z,5.10
2023-04-29T09:26:39.007Z,4.89
2023-04-29T09:27:41.568Z,4.65
2023-04-29T09:28:44.020Z,4.92
2023-04-29T09:29:46.242Z,4.53
2023-04-29T09:30:48.697Z,4.42
2023-04-29T09:31:51.012Z,4.64
2023-04-29T09:32:53.286Z,4.86
2023-04-29T09:33:55.581Z,4.54
2023-04-29T09:34:57.911Z,4.78
2023-04-29T09:36:00.137Z,4.75
2023-04-29T09:37:02.406Z,4.80
2023-04-29T09:38:04.669Z,5.18
2023-04-29T09:39:07.149Z,5.25
2023-04-29T09:40:09.447Z,5.60
2023-04-29T09:41:11.680Z,5.41
2023-04-29T09:42:14.244Z,5.45
2023-04-29T09:43:17.038Z,5.70
2023-04-29T09:44:19.503Z,5.65
2023-04-29T09:45:21.953Z,5.33
2023-04-29T09:46:24.522Z,5.96
2023-04-29T09:47:27.122Z,5.49
2023-04-29T09:48:29.764Z,4.92
2023-04-29T09:49:32.338Z,5.35
2023-04-29T09:50:34.814Z,5.30
2023-04-29T09:51:37.164Z,5.15
2023-04-29T09:52:39.409Z,5.65
2023-04-29T09:53:41.833Z,5.28
2023-04-29T09:54:44.448Z,5.86
2023-04-29T09:55:46.996Z,4.98
2023-04-29T09:56:49.424Z,5.55
2023-04-29T09:57:51.643Z,4.88
2023-04-29T09:58:54.089Z,5.32
2023-04-29T09:59:56.650Z,4.92
2023-04-29T10:00:59.125Z,3.97
2023-04-29T10:02:01.648Z,4.44
2023-04-29T10:03:04.399Z,4.25
2023-04-29T10:04:06.846Z,4.97
2023-04-29T10:05:09.773Z,4.22
2023-04-29T10:06:14.177Z,4.47
2023-04-29T10:07:16.460Z,4.90
2023-04-29T10:08:19.119Z,4.75
2023-04-29T10:09:21.566Z,5.54
2023-04-29T10:10:26.646Z,5.65
2023-04-29T10:11:29.615Z,5.52
2023-04-29T10:12:31.896Z,5.26
2023-04-29T10:13:34.127Z,5.01
2023-04-29T10:14:36.373Z,5.56
2023-04-29T10:15:38.862Z,5.79
2023-04-29T10:16:41.339Z,5.25
2023-04-29T10:17:43.782Z,5.72
2023-04-29T10:18:46.235Z,5.51
2023-04-29T10:19:48.755Z,6.22
2023-04-29T10:20:51.456Z,6.27
2023-04-29T10:21:53.695Z,5.96
2023-04-29T10:22:56.004Z,5.15
2023-04-29T10:23:58.219Z,5.71
2023-04-29T10:25:00.430Z,6.14
2023-04-29T10:26:02.713Z,6.52
2023-04-29T10:27:07.996Z,7.03
2023-04-29T10:28:10.234Z,6.58
2023-04-29T10:29:12.621Z,6.37
2023-04-29T10:30:15.159Z,7.56
2023-04-29T10:31:18.085Z,5.89
2023-04-29T10:32:20.738Z,5.98
2023-04-29T10:33:23.304Z,6.88
2023-04-29T10:34:25.824Z,6.42
2023-04-29T10:35:28.274Z,6.61
2023-04-29T10:36:31.015Z,5.55
2023-04-29T10:37:33.512Z,5.52
2023-04-29T10:38:35.896Z,7.17
2023-04-29T10:39:38.339Z,7.10
2023-04-29T10:40:45.607Z,7.26
2023-04-29T10:41:47.938Z,6.88
2023-04-29T10:42:50.201Z,6.96
2023-04-29T10:43:52.454Z,6.77
2023-04-29T10:44:54.834Z,6.67
2023-04-29T10:45:57.287Z,7.22
2023-04-29T10:47:00.041Z,7.91
2023-04-29T10:48:02.715Z,9.45
2023-04-29T10:49:05.161Z,7.21
2023-04-29T10:50:07.722Z,6.68
2023-04-29T10:51:10.076Z,6.93
2023-04-29T10:52:12.517Z,7.39
2023-04-29T10:53:14.747Z,7.05
2023-04-29T10:54:16.983Z,7.08
2023-04-29T10:55:19.188Z,7.87
2023-04-29T10:56:21.701Z,9.28
2023-04-29T10:57:24.315Z,8.35
2023-04-29T10:58:26.739Z,8.46
2023-04-29T10:59:29.232Z,11.82
2023-04-29T11:00:31.548Z,11.42
2023-04-29T11:01:33.884Z,19.28
2023-04-29T11:02:36.493Z,23.83
2023-04-29T11:03:39.177Z,19.60
2023-04-29T11:04:41.639Z,18.83
2023-04-29T11:05:43.943Z,17.35
2023-04-29T11:06:46.236Z,14.31
2023-04-29T11:07:48.463Z,11.93
2023-04-29T11:08:50.680Z,8.33
2023-04-29T11:09:53.353Z,7.00
2023-04-29T11:10:56.039Z,6.24
2023-04-29T11:11:58.637Z,5.38
2023-04-29T11:13:01.290Z,4.51
2023-04-29T11:14:03.526Z,4.58
2023-04-29T11:15:05.821Z,4.21
2023-04-29T11:16:08.263Z,4.32
2023-04-29T11:17:10.587Z,4.10
2023-04-29T11:18:12.939Z,4.01
2023-04-29T11:19:15.268Z,3.85
2023-04-29T11:20:17.876Z,5.62
2023-04-29T11:21:20.541Z,4.16
2023-04-29T11:22:23.101Z,3.97
2023-04-29T11:23:28.404Z,3.62
2023-04-29T11:24:29.946Z,3.88
2023-04-29T11:25:32.460Z,3.95
2023-04-29T11:26:35.076Z,3.62
2023-04-29T11:27:37.881Z,4.24
2023-04-29T11:28:40.523Z,5.31
2023-04-29T11:29:42.980Z,4.18
2023-04-29T11:30:45.220Z,4.18
2023-04-29T11:31:47.931Z,4.11
2023-04-29T11:32:50.558Z,4.39
2023-04-29T11:33:53.038Z,4.12
2023-04-29T11:34:55.633Z,4.47
2023-04-29T11:35:58.257Z,5.15
2023-04-29T11:37:00.523Z,5.08
2023-04-29T11:38:02.828Z,5.52
2023-04-29T11:39:05.140Z,5.06
2023-04-29T11:40:07.347Z,4.78
2023-04-29T11:41:09.799Z,5.13
2023-04-29T11:42:12.256Z,4.42
2023-04-29T11:43:14.874Z,5.23
2023-04-29T11:44:17.235Z,4.82
2023-04-29T11:45:19.554Z,4.55
2023-04-29T11:46:21.805Z,4.50
2023-04-29T11:47:24.085Z,4.25
2023-04-29T11:48:26.466Z,4.78
2023-04-29T11:49:29.191Z,4.15
2023-04-29T11:50:31.733Z,3.73
2023-04-29T11:51:34.301Z,4.11
2023-04-29T11:52:36.869Z,3.83
2023-04-29T11:53:39.358Z,3.07
2023-04-29T11:54:42.053Z,3.55
2023-04-29T11:55:44.588Z,3.59
2023-04-29T11:56:47.241Z,3.85
2023-04-29T11:57:49.693Z,3.46
2023-04-29T11:58:52.245Z,3.80
2023-04-29T11:59:55.090Z,4.06
2023-04-29T12:00:57.692Z,3.53
2023-04-29T12:02:00.335Z,3.61
2023-04-29T12:03:02.952Z,4.16
2023-04-29T12:04:05.442Z,3.93
2023-04-29T12:05:08.078Z,4.05
2023-04-29T12:06:11.693Z,3.91
2023-04-29T12:07:15.266Z,4.12
2023-04-29T12:08:17.484Z,4.13
2023-04-29T12:09:19.736Z,3.52
2023-04-29T12:10:22.175Z,3.42
2023-04-29T12:11:24.420Z,2.92
2023-04-29T12:12:26.697Z,3.22
2023-04-29T12:13:29.197Z,3.52
2023-04-29T12:14:31.743Z,2.69
2023-04-29T12:15:34.236Z,2.65
2023-04-29T12:16:36.586Z,2.75
2023-04-29T12:17:39.058Z,2.72
2023-04-29T12:18:41.342Z,2.58
2023-04-29T12:19:43.540Z,2.55
2023-04-29T12:20:46.032Z,2.65
2023-04-29T12:21:49.816Z,2.89
2023-04-29T12:22:52.266Z,3.31
2023-04-29T12:23:54.690Z,2.78
2023-04-29T12:24:58.104Z,2.91
2023-04-29T12:26:02.433Z,2.64
2023-04-29T12:27:14.294Z,2.92
2023-04-29T12:28:16.748Z,3.15
2023-04-29T12:29:19.264Z,3.22
2023-04-29T12:30:21.785Z,3.47
2023-04-29T12:31:24.329Z,4.25
2023-04-29T12:32:31.722Z,4.03
2023-04-29T12:33:34.229Z,3.99
2023-04-29T12:34:36.750Z,4.03
2023-04-29T12:35:39.191Z,3.87
2023-04-29T12:36:41.658Z,4.28
2023-04-29T12:37:44.072Z,5.55
2023-04-29T12:38:46.592Z,6.03
2023-04-29T12:39:49.016Z,6.59
2023-04-29T12:40:51.433Z,7.03
2023-04-29T12:41:54.081Z,7.17
2023-04-29T12:42:56.540Z,6.98
2023-04-29T12:43:58.942Z,6.87
2023-04-29T12:45:01.285Z,6.31
2023-04-29T12:46:03.906Z,6.72
2023-04-29T12:47:06.733Z,5.51
2023-04-29T12:48:18.226Z,5.45
2023-04-29T12:49:13.319Z,4.59
2023-04-29T12:50:15.798Z,5.08
2023-04-29T12:51:19.484Z,4.69
2023-04-29T12:52:21.927Z,4.54
2023-04-29T12:53:24.161Z,4.21
2023-04-29T12:54:26.376Z,3.41
2023-04-29T12:55:28.591Z,2.28
2023-04-29T12:56:30.767Z,2.14
2023-04-29T12:57:33.048Z,1.98
2023-04-29T12:58:35.569Z,1.47
2023-04-29T12:59:38.497Z,1.10
2023-04-29T13:00:41.067Z,1.31
2023-04-29T13:01:43.608Z,1.57
2023-04-29T13:02:46.436Z,1.62
2023-04-29T13:03:49.516Z,1.33
2023-04-29T13:04:52.332Z,1.41
2023-04-29T13:05:55.287Z,1.60
2023-04-29T13:06:57.802Z,1.20
2023-04-29T13:08:00.554Z,1.12
2023-04-29T13:09:02.957Z,1.32
2023-04-29T13:10:05.360Z,1.30
2023-04-29T13:11:07.703Z,1.32
2023-04-29T13:12:09.985Z,1.40
2023-04-29T13:13:12.234Z,1.36
2023-04-29T13:14:14.496Z,1.27
2023-04-29T13:15:16.762Z,1.20
2023-04-29T13:16:19.005Z,1.10
2023-04-29T13:17:21.262Z,1.11
2023-04-29T13:18:23.899Z,1.05
2023-04-29T13:19:41.055Z,1.15
2023-04-29T13:20:30.388Z,1.32
2023-04-29T13:21:32.649Z,0.96
2023-04-29T13:22:35.049Z,0.93
2023-04-29T13:23:37.450Z,0.95
2023-04-29T13:24:39.689Z,0.80
2023-04-29T13:25:41.933Z,0.90
2023-04-29T13:26:44.095Z,0.97
2023-04-29T13:27:46.324Z,0.98
2023-04-29T13:28:48.840Z,1.04
2023-04-29T13:29:51.336Z,0.93
2023-04-29T13:30:53.783Z,1.07
2023-04-29T13:31:56.205Z,1.07
2023-04-29T13:33:04.369Z,0.93
2023-04-29T13:34:02.865Z,0.92
2023-04-29T13:35:05.406Z,1.14
2023-04-29T13:36:07.807Z,1.15
2023-04-29T13:37:10.228Z,0.89
2023-04-29T13:38:12.743Z,1.11
2023-04-29T13:39:15.331Z,1.04
2023-04-29T13:40:20.955Z,1.09
2023-04-29T13:41:21.542Z,1.05
2023-04-29T13:42:26.961Z,1.07
2023-04-29T13:43:36.002Z,1.01
2023-04-29T13:44:42.379Z,0.97
2023-04-29T13:45:39.020Z,0.91
2023-04-29T13:46:39.619Z,0.99
2023-04-29T13:48:00.376Z,0.95
2023-04-29T13:53:35.829Z,1.25
2023-04-29T14:02:38.903Z,0.90
2023-04-29T14:03:41.890Z,0.89
2023-04-29T14:04:44.564Z,0.70
2023-04-29T14:05:47.410Z,0.84
2023-04-29T14:06:49.920Z,0.94